createdAt,value
2019-02-04T00:00:37.449Z,76.67
2019-02-04T00:03:07.713Z,76.53
2019-02-04T00:05:37.571Z,76.57
2019-02-04T00:08:07.488Z,76.39
2019-02-04T00:10:37.490Z,76.26
2019-02-04T00:13:08.466Z,76.37
2019-02-04T00:15:38.411Z,76.35
2019-02-04T00:18:09.314Z,76.26
2019-02-04T00:20:39.197Z,76.52
2019-02-04T00:23:09.235Z,76.55
2019-02-04T00:25:39.567Z,76.44
2019-02-04T00:28:09.537Z,76.43
2019-02-04T00:30:40.293Z,76.45
2019-02-04T00:33:10.370Z,76.54
2019-02-04T00:35:40.517Z,76.57
2019-02-04T00:38:24.928Z,76.56
2019-02-04T00:40:54.867Z,76.56
2019-02-04T00:43:27.709Z,76.56
2019-02-04T00:45:57.535Z,76.62
2019-02-04T00:48:27.509Z,76.58
2019-02-04T00:50:57.489Z,76.51
2019-02-04T00:53:27.558Z,76.49
2019-02-04T00:55:57.597Z,76.37
2019-02-04T00:58:27.640Z,76.31
2019-02-04T01:00:57.661Z,76.41
2019-02-04T01:03:27.983Z,76.49
2019-02-04T01:05:58.161Z,76.44
2019-02-04T01:08:28.201Z,76.46
2019-02-04T01:10:58.979Z,76.09
2019-02-04T01:13:28.971Z,76.19
2019-02-04T01:15:59.007Z,76.12
2019-02-04T01:18:28.956Z,75.79
2019-02-04T01:20:58.949Z,75.93
2019-02-04T01:23:28.839Z,75.58
2019-02-04T01:25:58.655Z,75.29
2019-02-04T01:28:28.620Z,75.58
2019-02-04T01:30:58.573Z,75.65
2019-02-04T01:33:28.487Z,75.66
2019-02-04T01:35:58.386Z,75.69
2019-02-04T01:38:28.291Z,75.74
2019-02-04T01:40:58.332Z,75.49
2019-02-04T01:43:28.478Z,76.24
2019-02-04T01:46:00.851Z,76.01
2019-02-04T01:48:30.438Z,75.94
2019-02-04T01:51:00.350Z,76.00
2019-02-04T01:53:31.106Z,76.22
2019-02-04T01:56:01.098Z,76.23
2019-02-04T01:58:36.264Z,76.28
2019-02-04T02:01:06.277Z,75.92
2019-02-04T02:03:37.859Z,76.21
2019-02-04T02:06:07.877Z,75.97
2019-02-04T02:08:37.836Z,76.15
2019-02-04T02:11:07.787Z,76.21
2019-02-04T02:13:37.668Z,76.21
2019-02-04T02:16:07.932Z,76.24
2019-02-04T02:18:37.800Z,76.21
2019-02-04T02:21:08.678Z,76.22
2019-02-04T02:23:39.213Z,76.11
2019-02-04T02:26:11.637Z,76.24
2019-02-04T02:28:41.991Z,76.11
2019-02-04T02:31:11.966Z,75.94
2019-02-04T02:33:42.232Z,76.07
2019-02-04T02:36:12.223Z,75.92
2019-02-04T02:38:42.402Z,75.86
2019-02-04T02:41:12.363Z,75.87
2019-02-04T02:43:43.122Z,75.91
2019-02-04T02:46:13.036Z,75.94
2019-02-04T02:48:42.977Z,76.21
2019-02-04T02:51:12.865Z,75.68
2019-02-04T02:53:43.876Z,75.46
2019-02-04T02:56:13.816Z,75.92
2019-02-04T02:58:43.787Z,75.99
2019-02-04T03:01:13.664Z,75.62
2019-02-04T03:03:43.750Z,75.44
2019-02-04T03:06:13.620Z,74.83
2019-02-04T03:08:43.452Z,74.91
2019-02-04T03:11:13.371Z,74.29
2019-02-04T03:13:43.313Z,74.26
2019-02-04T03:16:13.516Z,74.55
2019-02-04T03:18:43.426Z,74.53
2019-02-04T03:21:13.337Z,74.74
2019-02-04T03:23:43.238Z,75.10
2019-02-04T03:26:13.195Z,75.15
2019-02-04T03:28:43.351Z,75.24
2019-02-04T03:31:13.624Z,75.75
2019-02-04T03:33:43.497Z,75.79
2019-02-04T03:36:13.487Z,75.55
2019-02-04T03:38:43.495Z,75.54
2019-02-04T03:41:14.084Z,75.35
2019-02-04T03:43:44.180Z,75.30
2019-02-04T03:46:14.121Z,75.16
2019-02-04T03:48:44.074Z,74.69
2019-02-04T03:51:13.970Z,74.53
2019-02-04T03:53:43.883Z,74.30
2019-02-04T03:56:13.799Z,74.37
2019-02-04T03:58:50.587Z,74.35
2019-02-04T04:01:25.179Z,74.30
2019-02-04T04:03:55.114Z,74.39
2019-02-04T04:06:25.371Z,74.29
2019-02-04T04:08:57.514Z,74.30
2019-02-04T04:11:29.169Z,74.44
2019-02-04T04:13:59.215Z,73.90
2019-02-04T04:16:31.227Z,74.32
2019-02-04T04:19:01.200Z,74.77
2019-02-04T04:21:31.656Z,74.66
2019-02-04T04:24:02.950Z,74.66
2019-02-04T04:26:35.623Z,74.62
2019-02-04T04:29:12.599Z,74.76
2019-02-04T04:31:46.807Z,75.60
2019-02-04T04:34:16.812Z,75.92
2019-02-04T04:36:46.617Z,75.94
2019-02-04T04:39:17.761Z,76.22
2019-02-04T04:41:47.693Z,76.34
2019-02-04T04:44:19.376Z,76.29
2019-02-04T04:46:52.779Z,76.37
2019-02-04T04:49:22.674Z,76.42
2019-02-04T04:51:52.579Z,76.40
2019-02-04T04:54:26.999Z,76.75
2019-02-04T04:56:58.525Z,76.76
2019-02-04T04:59:34.244Z,77.00
2019-02-04T05:02:04.390Z,76.96
2019-02-04T05:04:34.421Z,77.20
2019-02-04T05:07:04.377Z,77.46
2019-02-04T05:09:34.542Z,77.47
2019-02-04T05:12:04.740Z,77.57
2019-02-04T05:14:35.217Z,77.91
2019-02-04T05:17:10.172Z,78.03
2019-02-04T05:19:40.214Z,78.07
2019-02-04T05:22:10.564Z,78.28
2019-02-04T05:24:40.582Z,78.42
2019-02-04T05:27:10.521Z,78.55
2019-02-04T05:29:43.658Z,78.56
2019-02-04T05:32:16.062Z,78.58
2019-02-04T05:34:48.586Z,78.59
2019-02-04T05:37:18.652Z,78.97
2019-02-04T05:39:48.689Z,79.03
2019-02-04T05:42:20.549Z,78.61
2019-02-04T05:44:50.252Z,78.34
2019-02-04T05:47:25.076Z,78.31
2019-02-04T05:49:58.760Z,78.37
2019-02-04T05:52:28.635Z,77.89
2019-02-04T05:54:58.604Z,77.83
2019-02-04T05:57:28.486Z,77.89
2019-02-04T05:59:58.690Z,78.19
2019-02-04T06:02:28.675Z,78.61
2019-02-04T06:04:58.586Z,78.96
2019-02-04T06:07:28.510Z,78.83
2019-02-04T06:09:58.478Z,78.74
2019-02-04T06:12:28.365Z,78.87
2019-02-04T06:14:58.305Z,79.28
2019-02-04T06:17:28.264Z,79.58
2019-02-04T06:19:58.422Z,80.02
2019-02-04T06:22:28.762Z,80.04
2019-02-04T06:24:58.802Z,79.83
2019-02-04T06:27:29.152Z,79.64
2019-02-04T06:29:59.272Z,79.49
2019-02-04T06:32:30.346Z,79.86
2019-02-04T06:35:00.436Z,80.08
2019-02-04T06:37:30.448Z,79.85
2019-02-04T06:40:00.443Z,79.81
2019-02-04T06:42:30.354Z,80.08
2019-02-04T06:45:00.317Z,80.09
2019-02-04T06:47:30.185Z,80.28
2019-02-04T06:50:00.275Z,80.35
2019-02-04T06:52:30.257Z,80.47
2019-02-04T06:55:00.349Z,80.21
2019-02-04T06:57:30.429Z,80.05
2019-02-04T07:00:00.463Z,79.89
2019-02-04T07:02:30.387Z,79.68
2019-02-04T07:05:00.363Z,79.71
2019-02-04T07:07:30.272Z,79.65
2019-02-04T07:10:00.315Z,80.37
2019-02-04T07:12:30.255Z,80.17
2019-02-04T07:15:00.279Z,79.71
2019-02-04T07:17:30.167Z,79.37
2019-02-04T07:20:00.314Z,79.45
2019-02-04T07:22:30.679Z,79.09
2019-02-04T07:25:00.861Z,78.89
2019-02-04T07:27:30.897Z,78.39
2019-02-04T07:30:01.037Z,78.12
2019-02-04T07:32:31.115Z,77.82
2019-02-04T07:35:01.098Z,77.54
2019-02-04T07:37:31.419Z,77.15
2019-02-04T07:40:01.611Z,76.64
2019-02-04T07:42:32.016Z,76.12
2019-02-04T07:45:02.054Z,76.04
2019-02-04T07:47:33.103Z,76.00
2019-02-04T07:50:03.335Z,75.66
2019-02-04T07:52:33.138Z,75.46
2019-02-04T07:55:03.173Z,75.44
2019-02-04T07:57:33.039Z,75.35
2019-02-04T08:00:03.063Z,75.47
2019-02-04T08:02:33.115Z,75.83
2019-02-04T08:05:03.410Z,75.86
2019-02-04T08:07:33.351Z,76.03
2019-02-04T08:10:03.271Z,76.05
2019-02-04T08:12:33.127Z,76.00
2019-02-04T08:15:03.011Z,76.19
2019-02-04T08:17:33.105Z,76.16
2019-02-04T08:20:03.164Z,76.24
2019-02-04T08:22:33.248Z,76.18
2019-02-04T08:25:03.088Z,76.11
2019-02-04T08:27:33.033Z,76.33
2019-02-04T08:30:05.727Z,76.39
2019-02-04T08:32:35.955Z,76.17
2019-02-04T08:35:06.047Z,75.93
2019-02-04T08:37:36.099Z,75.44
2019-02-04T08:40:06.546Z,75.18
2019-02-04T08:42:36.587Z,74.98
2019-02-04T08:45:06.968Z,74.24
2019-02-04T08:47:37.009Z,73.65
2019-02-04T08:50:08.151Z,73.61
2019-02-04T08:52:38.090Z,73.48
2019-02-04T08:55:08.857Z,73.51
2019-02-04T08:57:38.904Z,73.38
2019-02-04T09:00:10.641Z,73.17
2019-02-04T09:02:41.758Z,73.01
2019-02-04T09:05:12.433Z,72.86
2019-02-04T09:07:42.309Z,72.46
2019-02-04T09:10:15.175Z,71.99
2019-02-04T09:12:45.115Z,71.71
2019-02-04T09:15:16.353Z,71.49
2019-02-04T09:17:46.397Z,71.15
2019-02-04T09:20:16.868Z,70.46
2019-02-04T09:22:46.771Z,69.74
2019-02-04T09:25:17.098Z,69.92
2019-02-04T09:27:47.173Z,69.19
2019-02-04T09:30:19.304Z,68.56
2019-02-04T09:32:49.305Z,68.04
2019-02-04T09:35:20.074Z,67.69
2019-02-04T09:37:50.227Z,67.17
2019-02-04T09:40:41.068Z,66.50
2019-02-04T09:43:11.724Z,66.40
2019-02-04T09:45:43.127Z,65.49
2019-02-04T09:48:16.468Z,65.09
2019-02-04T09:50:49.742Z,65.28
2019-02-04T09:53:19.798Z,64.97
2019-02-04T09:55:49.872Z,64.36
2019-02-04T09:58:19.763Z,63.85
2019-02-04T10:00:49.622Z,63.66
2019-02-04T10:03:19.434Z,62.99
2019-02-04T10:05:49.902Z,62.92
2019-02-04T10:08:20.354Z,62.75
2019-02-04T10:10:50.733Z,62.48
2019-02-04T10:13:20.891Z,62.29
2019-02-04T10:15:51.886Z,61.87
2019-02-04T10:18:23.160Z,61.78
2019-02-04T10:20:53.063Z,61.68
2019-02-04T10:23:22.954Z,61.01
2019-02-04T10:25:52.857Z,60.80
2019-02-04T10:28:22.779Z,60.47
2019-02-04T10:30:52.806Z,60.15
2019-02-04T10:33:22.742Z,59.84
2019-02-04T10:35:52.725Z,59.50
2019-02-04T10:38:22.614Z,59.10
2019-02-04T10:40:52.590Z,59.08
2019-02-04T10:43:22.601Z,58.98
2019-02-04T10:45:52.832Z,59.15
2019-02-04T10:48:22.682Z,58.85
2019-02-04T10:50:52.890Z,58.68
2019-02-04T10:53:22.859Z,58.26
2019-02-04T10:55:53.607Z,57.85
2019-02-04T10:58:23.739Z,57.81
2019-02-04T11:00:53.589Z,57.43
2019-02-04T11:03:23.659Z,57.60
2019-02-04T11:05:53.682Z,57.44
2019-02-04T11:08:23.635Z,56.67
2019-02-04T11:10:53.500Z,56.16
2019-02-04T11:13:25.475Z,55.38
2019-02-04T11:15:55.369Z,55.50
2019-02-04T11:18:27.311Z,55.47
2019-02-04T11:20:59.644Z,55.09
2019-02-04T11:23:29.864Z,55.05
2019-02-04T11:26:00.984Z,55.38
2019-02-04T11:28:31.746Z,55.25
2019-02-04T11:31:08.347Z,55.97
2019-02-04T11:33:38.399Z,57.17
2019-02-04T11:36:08.338Z,54.98
2019-02-04T11:38:38.810Z,55.26
2019-02-04T11:41:09.033Z,55.10
2019-02-04T11:43:39.050Z,55.44
2019-02-04T11:46:09.201Z,54.82
2019-02-04T11:48:39.316Z,54.78
2019-02-04T11:51:10.173Z,55.62
2019-02-04T11:53:40.241Z,54.75
2019-02-04T11:56:10.242Z,54.25
2019-02-04T11:58:40.190Z,53.87
2019-02-04T12:01:10.265Z,54.44
2019-02-04T12:03:41.441Z,54.64
2019-02-04T12:06:11.557Z,53.88
2019-02-04T12:08:42.155Z,54.43
2019-02-04T12:11:17.560Z,53.84
2019-02-04T12:13:47.917Z,53.92
2019-02-04T12:16:17.995Z,53.40
2019-02-04T12:18:48.305Z,53.62
2019-02-04T12:21:21.653Z,53.77
2019-02-04T12:23:51.999Z,54.10
2019-02-04T12:26:21.997Z,53.94
2019-02-04T12:28:52.035Z,53.66
2019-02-04T12:31:22.478Z,54.00
2019-02-04T12:33:52.443Z,54.55
2019-02-04T12:36:23.147Z,54.35
2019-02-04T12:38:55.285Z,54.34
2019-02-04T12:41:25.472Z,53.30
2019-02-04T12:43:55.419Z,53.61
2019-02-04T12:46:25.458Z,52.78
2019-02-04T12:48:55.575Z,52.94
2019-02-04T12:51:33.330Z,52.87
2019-02-04T12:53:57.801Z,53.23
2019-02-04T12:56:27.714Z,53.36
2019-02-04T12:58:57.982Z,53.48
2019-02-04T13:01:27.927Z,53.49
2019-02-04T13:03:58.022Z,52.95
2019-02-04T13:06:28.102Z,52.56
2019-02-04T13:08:58.055Z,52.14
2019-02-04T13:11:28.113Z,52.13
2019-02-04T13:13:58.069Z,52.65
2019-02-04T13:16:29.624Z,52.31
2019-02-04T13:18:59.750Z,52.40
2019-02-04T13:21:30.514Z,52.82
2019-02-04T13:24:01.773Z,52.59
2019-02-04T13:26:56.100Z,53.34
2019-02-04T13:29:27.649Z,52.35
2019-02-04T13:31:59.365Z,52.17
2019-02-04T13:34:30.029Z,52.13
2019-02-04T13:37:00.140Z,52.12
2019-02-04T13:39:31.466Z,52.03
2019-02-04T13:42:01.710Z,52.39
2019-02-04T13:44:31.988Z,52.51
2019-02-04T13:47:02.077Z,53.09
2019-02-04T13:49:32.092Z,52.60
2019-02-04T13:52:02.214Z,52.68
2019-02-04T13:54:32.169Z,52.76
2019-02-04T13:57:03.720Z,52.40
2019-02-04T13:59:33.723Z,52.77
2019-02-04T14:02:05.331Z,52.76
2019-02-04T14:04:35.566Z,52.27
2019-02-04T14:07:05.702Z,52.81
2019-02-04T14:09:35.678Z,52.91
2019-02-04T14:12:06.278Z,52.32
2019-02-04T14:14:38.090Z,52.30
2019-02-04T14:17:08.106Z,52.31
2019-02-04T14:19:38.160Z,52.45
2019-02-04T14:22:09.748Z,52.53
2019-02-04T14:24:39.772Z,52.72
2019-02-04T14:27:10.084Z,52.28
2019-02-04T14:29:42.300Z,52.49
2019-02-04T14:32:12.493Z,52.81
2019-02-04T14:34:46.118Z,52.91
2019-02-04T14:37:17.418Z,52.00
2019-02-04T14:39:47.581Z,53.09
2019-02-04T14:42:21.925Z,52.51
2019-02-04T14:45:33.100Z,53.33
2019-02-04T14:48:35.590Z,52.71
2019-02-04T14:51:41.063Z,52.61
2019-02-04T14:55:06.978Z,52.73
2019-02-04T14:58:35.809Z,52.98
2019-02-04T15:01:49.961Z,54.07
2019-02-04T15:05:09.798Z,53.55
2019-02-04T15:08:10.884Z,53.20
2019-02-04T15:11:05.471Z,53.02
2019-02-04T15:14:27.051Z,53.21
2019-02-04T15:17:33.399Z,53.36
2019-02-04T15:20:30.487Z,53.73
2019-02-04T15:23:43.209Z,53.87
2019-02-04T15:26:52.606Z,53.34
2019-02-04T15:29:46.786Z,53.49
2019-02-04T15:32:38.703Z,53.24
2019-02-04T15:35:42.465Z,54.42
2019-02-04T15:38:38.838Z,53.52
2019-02-04T15:41:49.453Z,53.45
2019-02-04T15:44:55.811Z,53.39
2019-02-04T15:47:53.151Z,53.35
2019-02-04T15:51:05.921Z,53.41
2019-02-04T15:53:35.804Z,53.50
2019-02-04T15:56:07.413Z,53.52
2019-02-04T15:58:49.994Z,53.42
2019-02-04T16:01:20.285Z,53.56
2019-02-04T16:03:52.983Z,53.42
2019-02-04T16:06:26.246Z,54.08
2019-02-04T16:09:08.932Z,53.91
2019-02-04T16:11:40.333Z,54.09
2019-02-04T16:14:16.148Z,54.10
2019-02-04T16:17:04.471Z,53.88
2019-02-04T16:19:30.140Z,54.54
2019-02-04T16:22:15.145Z,54.62
2019-02-04T16:24:41.950Z,54.56
2019-02-04T16:28:07.614Z,54.39
2019-02-04T16:30:41.743Z,54.45
2019-02-04T16:33:15.631Z,54.41
2019-02-04T16:35:45.696Z,54.28
2019-02-04T16:38:15.765Z,54.37
2019-02-04T16:40:47.186Z,54.48
2019-02-04T16:43:17.737Z,54.57
2019-02-04T16:45:47.728Z,54.57
2019-02-04T16:48:17.666Z,54.06
2019-02-04T16:51:03.450Z,54.20
2019-02-04T16:53:21.630Z,54.29
2019-02-04T16:55:52.318Z,53.95
2019-02-04T16:58:22.593Z,53.69
2019-02-04T17:00:53.038Z,53.94
2019-02-04T17:03:23.035Z,53.75
2019-02-04T17:05:53.138Z,53.57
2019-02-04T17:08:23.187Z,53.62
2019-02-04T17:10:53.374Z,53.28
2019-02-04T17:13:23.292Z,52.98
2019-02-04T17:15:53.247Z,52.91
2019-02-04T17:18:23.350Z,52.82
2019-02-04T17:21:04.354Z,52.70
2019-02-04T17:23:37.475Z,52.50
2019-02-04T17:26:07.474Z,52.18
2019-02-04T17:28:37.629Z,52.18
2019-02-04T17:31:07.596Z,53.02
2019-02-04T17:33:37.674Z,52.63
2019-02-04T17:36:08.126Z,52.45
2019-02-04T17:38:38.088Z,52.23
2019-02-04T17:41:08.128Z,51.96
2019-02-04T17:43:38.021Z,51.99
2019-02-04T17:46:09.558Z,52.10
2019-02-04T17:48:41.511Z,51.89
2019-02-04T17:51:36.176Z,51.90
2019-02-04T17:54:07.195Z,51.83
2019-02-04T17:56:47.069Z,51.89
2019-02-04T17:59:17.521Z,52.31
2019-02-04T18:01:50.523Z,51.88
2019-02-04T18:04:21.009Z,51.73
2019-02-04T18:06:51.799Z,52.23
2019-02-04T18:09:21.952Z,51.94
2019-02-04T18:11:51.981Z,52.09
2019-02-04T18:14:23.635Z,52.50
2019-02-04T18:16:53.679Z,52.65
2019-02-04T18:19:23.609Z,52.32
2019-02-04T18:21:53.627Z,52.39
2019-02-04T18:24:23.834Z,52.19
2019-02-04T18:26:54.462Z,52.34
2019-02-04T18:29:24.545Z,53.00
2019-02-04T18:31:55.219Z,52.57
2019-02-04T18:34:26.152Z,52.63
2019-02-04T18:36:56.465Z,52.36
2019-02-04T18:39:26.625Z,52.24
2019-02-04T18:41:57.135Z,52.31
2019-02-04T18:44:27.256Z,52.51
2019-02-04T18:46:57.113Z,52.54
2019-02-04T18:49:27.165Z,53.38
2019-02-04T18:51:57.181Z,52.74
2019-02-04T18:54:27.783Z,52.61
2019-02-04T18:56:57.843Z,52.69
2019-02-04T18:59:27.575Z,52.78
2019-02-04T19:01:57.655Z,52.49
2019-02-04T19:04:27.788Z,53.04
2019-02-04T19:06:57.669Z,52.83
2019-02-04T19:09:27.728Z,52.61
2019-02-04T19:11:57.741Z,52.81
2019-02-04T19:14:28.000Z,52.69
2019-02-04T19:16:58.061Z,52.98
2019-02-04T19:19:32.059Z,52.93
2019-02-04T19:22:02.253Z,52.96
2019-02-04T19:24:32.400Z,52.80
2019-02-04T19:27:02.604Z,52.93
2019-02-04T19:29:33.055Z,52.89
2019-02-04T19:32:03.689Z,52.70
2019-02-04T19:34:33.740Z,52.69
2019-02-04T19:37:06.519Z,52.68
2019-02-04T19:39:36.997Z,52.48
2019-02-04T19:42:09.249Z,52.46
2019-02-04T19:44:39.869Z,52.20
2019-02-04T19:47:09.831Z,52.37
2019-02-04T19:49:39.927Z,52.24
2019-02-04T19:52:09.895Z,51.78
2019-02-04T19:54:41.066Z,51.78
2019-02-04T19:57:11.162Z,51.74
2019-02-04T19:59:46.867Z,52.28
2019-02-04T20:02:17.398Z,52.11
2019-02-04T20:04:47.501Z,51.84
2019-02-04T20:07:18.338Z,51.81
2019-02-04T20:09:50.178Z,51.75
2019-02-04T20:12:21.933Z,51.61
2019-02-04T20:14:52.292Z,51.37
2019-02-04T20:17:22.448Z,51.74
2019-02-04T20:19:55.312Z,51.26
2019-02-04T20:22:28.266Z,50.96
2019-02-04T20:24:58.624Z,51.28
2019-02-04T20:27:31.942Z,51.16
2019-02-04T20:30:03.705Z,51.12
2019-02-04T20:32:38.231Z,51.26
2019-02-04T20:35:10.106Z,51.03
2019-02-04T20:37:40.624Z,50.92
2019-02-04T20:40:12.111Z,51.01
2019-02-04T20:42:42.576Z,50.79
2019-02-04T20:45:13.228Z,50.79
2019-02-04T20:47:43.805Z,50.91
2019-02-04T20:50:17.632Z,50.39
2019-02-04T20:52:47.840Z,50.72
2019-02-04T20:55:19.557Z,51.18
2019-02-04T20:57:50.296Z,50.57
2019-02-04T21:00:22.472Z,50.50
2019-02-04T21:02:52.503Z,50.50
2019-02-04T21:05:22.778Z,50.52
2019-02-04T21:07:52.918Z,50.47
2019-02-04T21:10:23.855Z,51.17
2019-02-04T21:12:56.887Z,50.63
2019-02-04T21:15:27.068Z,50.18
2019-02-04T21:17:57.134Z,50.07
2019-02-04T21:20:28.886Z,49.97
2019-02-04T21:22:58.924Z,49.89
2019-02-04T21:25:28.995Z,50.05
2019-02-04T21:27:59.326Z,49.79
2019-02-04T21:30:31.949Z,49.93
2019-02-04T21:33:02.150Z,49.65
2019-02-04T21:35:32.368Z,49.55
2019-02-04T21:38:02.566Z,49.21
2019-02-04T21:40:33.121Z,49.39
2019-02-04T21:43:03.084Z,50.04
2019-02-04T21:45:33.260Z,49.49
2019-02-04T21:48:03.373Z,49.84
2019-02-04T21:50:36.165Z,49.66
2019-02-04T21:53:06.434Z,49.40
2019-02-04T21:55:36.486Z,49.55
2019-02-04T21:58:06.798Z,49.68
2019-02-04T22:00:38.610Z,49.10
2019-02-04T22:03:08.650Z,49.01
2019-02-04T22:05:38.590Z,49.82
2019-02-04T22:08:08.637Z,49.37
2019-02-04T22:10:40.729Z,49.86
2019-02-04T22:13:12.803Z,49.94
2019-02-04T22:15:42.640Z,50.19
2019-02-04T22:18:12.779Z,49.78
2019-02-04T22:20:42.948Z,49.85
2019-02-04T22:23:12.917Z,49.67
2019-02-04T22:25:43.146Z,50.37
2019-02-04T22:28:13.056Z,50.50
2019-02-04T22:30:43.255Z,49.82
2019-02-04T22:33:13.182Z,50.08
2019-02-04T22:35:43.089Z,50.67
2019-02-04T22:38:13.030Z,50.55
2019-02-04T22:40:42.860Z,50.49
2019-02-04T22:43:12.978Z,50.90
2019-02-04T22:45:45.864Z,50.75
2019-02-04T22:48:15.830Z,50.61
2019-02-04T22:50:45.951Z,50.43
2019-02-04T22:53:16.025Z,50.54
2019-02-04T22:55:47.009Z,50.53
2019-02-04T22:58:17.000Z,51.68
2019-02-04T23:01:23.638Z,50.97
2019-02-04T23:03:53.552Z,50.66
2019-02-04T23:06:23.488Z,51.48
2019-02-04T23:08:53.467Z,51.46
2019-02-04T23:11:23.817Z,51.43
2019-02-04T23:13:54.458Z,51.63
2019-02-04T23:16:24.803Z,51.60
2019-02-04T23:18:54.922Z,51.97
2019-02-04T23:21:24.896Z,52.75
2019-02-04T23:23:56.413Z,52.61
2019-02-04T23:26:26.423Z,52.74
2019-02-04T23:28:56.376Z,52.85
2019-02-04T23:31:27.723Z,52.58
2019-02-04T23:33:57.747Z,52.55
2019-02-04T23:36:27.643Z,52.34
2019-02-04T23:38:57.585Z,53.06
2019-02-04T23:41:29.283Z,53.30
2019-02-04T23:43:59.167Z,53.99
2019-02-04T23:46:30.109Z,54.22
2019-02-04T23:49:00.093Z,54.86
2019-02-04T23:51:30.069Z,55.32
2019-02-04T23:53:59.961Z,55.49
2019-02-04T23:56:29.937Z,55.44
2019-02-04T23:58:59.895Z,55.31
